createdAt,value
2022-10-16T00:00:53.278Z,392.60
2022-10-16T00:03:38.522Z,397.27
2022-10-16T00:06:10.404Z,398.35
2022-10-16T00:08:43.162Z,386.63
2022-10-16T00:11:16.589Z,390.33
2022-10-16T00:13:51.008Z,389.98
2022-10-16T00:16:25.282Z,398.52
2022-10-16T00:18:57.105Z,395.60
2022-10-16T00:21:30.345Z,384.42
2022-10-16T00:24:20.505Z,384.30
2022-10-16T00:26:54.426Z,377.58
2022-10-16T00:29:25.972Z,389.67
2022-10-16T00:31:59.896Z,389.80
2022-10-16T00:34:31.437Z,393.02
2022-10-16T00:37:02.780Z,382.75
2022-10-16T00:39:34.266Z,390.95
2022-10-16T00:42:05.508Z,377.85
2022-10-16T00:44:48.653Z,387.33
2022-10-16T00:47:26.620Z,387.25
2022-10-16T00:50:03.900Z,381.58
2022-10-16T00:52:35.289Z,389.80
2022-10-16T00:55:08.664Z,375.92
2022-10-16T00:57:40.229Z,390.92
2022-10-16T01:00:14.947Z,388.48
2022-10-16T01:02:48.682Z,376.65
2022-10-16T01:05:21.644Z,382.02
2022-10-16T01:08:02.145Z,374.95
2022-10-16T01:10:38.842Z,380.08
2022-10-16T01:13:11.884Z,380.15
2022-10-16T01:15:48.546Z,390.45
2022-10-16T01:18:30.741Z,395.80
2022-10-16T01:23:47.845Z,364.00
2022-10-16T01:26:34.970Z,371.83
2022-10-16T01:29:15.593Z,369.63
2022-10-16T01:31:52.281Z,369.23
2022-10-16T01:34:28.394Z,374.65
2022-10-16T01:37:06.255Z,381.27
2022-10-16T01:39:41.214Z,359.52
2022-10-16T01:42:17.349Z,362.20
2022-10-16T01:44:52.939Z,371.58
2022-10-16T01:47:28.275Z,364.98
2022-10-16T01:50:01.854Z,378.55
2022-10-16T01:52:33.893Z,366.65
2022-10-16T01:55:10.750Z,364.27
2022-10-16T01:57:45.392Z,378.90
2022-10-16T02:00:23.788Z,364.90
2022-10-16T02:02:58.021Z,378.05
2022-10-16T02:05:33.194Z,369.00
2022-10-16T02:08:05.709Z,366.88
2022-10-16T02:10:38.448Z,359.10
2022-10-16T02:13:13.768Z,369.00
2022-10-16T02:15:47.479Z,363.58
2022-10-16T02:18:19.295Z,377.60
2022-10-16T02:20:56.813Z,374.95
2022-10-16T02:23:37.124Z,366.15
2022-10-16T02:26:11.001Z,376.17
2022-10-16T02:28:49.316Z,361.00
2022-10-16T02:31:28.905Z,370.23
2022-10-16T02:34:02.987Z,368.63
2022-10-16T02:36:34.627Z,363.45
2022-10-16T02:39:07.060Z,361.25
2022-10-16T02:41:38.301Z,365.00
2022-10-16T02:44:09.732Z,367.08
2022-10-16T02:46:43.657Z,359.50
2022-10-16T02:49:15.130Z,357.88
2022-10-16T02:51:46.292Z,353.13
2022-10-16T02:54:17.702Z,352.60
2022-10-16T02:56:48.882Z,361.63
2022-10-16T02:59:20.410Z,364.23
2022-10-16T03:01:54.315Z,347.38
2022-10-16T03:04:25.681Z,361.33
2022-10-16T03:06:56.853Z,352.60
2022-10-16T03:09:28.356Z,357.55
2022-10-16T03:11:59.531Z,346.60
2022-10-16T03:14:32.388Z,339.75
2022-10-16T03:17:06.078Z,341.45
2022-10-16T03:19:37.659Z,343.80
2022-10-16T03:22:09.618Z,349.40
2022-10-16T03:24:41.138Z,327.73
2022-10-16T03:27:12.319Z,345.17
2022-10-16T03:29:43.768Z,341.88
2022-10-16T03:32:17.498Z,338.38
2022-10-16T03:34:49.025Z,338.85
2022-10-16T03:37:20.210Z,337.52
2022-10-16T03:39:51.774Z,332.48
2022-10-16T03:42:23.241Z,339.10
2022-10-16T03:44:54.633Z,332.85
2022-10-16T03:47:28.901Z,328.65
2022-10-16T03:50:00.678Z,327.02
2022-10-16T03:52:34.250Z,326.73
2022-10-16T03:55:05.803Z,331.15
2022-10-16T03:57:37.019Z,335.48
2022-10-16T04:00:09.790Z,334.70
2022-10-16T04:05:37.873Z,327.50
2022-10-16T04:08:08.998Z,321.23
2022-10-16T04:10:40.446Z,331.80
2022-10-16T04:13:11.545Z,333.67
2022-10-16T04:15:43.049Z,321.08
2022-10-16T04:18:16.856Z,315.10
2022-10-16T04:20:48.241Z,318.30
2022-10-16T04:23:19.575Z,322.45
2022-10-16T04:25:51.031Z,326.20
2022-10-16T04:28:22.333Z,321.52
2022-10-16T04:30:53.782Z,319.20
2022-10-16T04:33:27.611Z,326.23
2022-10-16T04:36:03.110Z,320.58
2022-10-16T04:38:34.318Z,317.63
2022-10-16T04:41:05.717Z,315.95
2022-10-16T04:43:37.120Z,327.35
2022-10-16T04:46:08.841Z,322.23
2022-10-16T04:48:42.869Z,329.70
2022-10-16T04:51:14.214Z,322.77
2022-10-16T04:53:45.431Z,330.30
2022-10-16T04:56:17.107Z,326.58
2022-10-16T04:58:48.218Z,322.50
2022-10-16T05:01:19.671Z,312.97
2022-10-16T05:03:53.513Z,326.65
2022-10-16T05:06:24.887Z,312.45
2022-10-16T05:08:56.402Z,319.42
2022-10-16T05:11:27.910Z,324.23
2022-10-16T05:13:59.230Z,325.27
2022-10-16T05:16:31.401Z,304.88
2022-10-16T05:19:26.232Z,318.30
2022-10-16T05:21:56.359Z,319.35
2022-10-16T05:24:27.794Z,324.45
2022-10-16T05:26:59.336Z,316.15
2022-10-16T05:29:30.839Z,326.15
2022-10-16T05:32:02.623Z,317.92
2022-10-16T05:34:36.577Z,325.70
2022-10-16T05:37:08.449Z,323.40
2022-10-16T05:39:40.251Z,323.83
2022-10-16T05:42:12.000Z,335.05
2022-10-16T05:44:43.155Z,332.83
2022-10-16T05:47:16.985Z,320.45
2022-10-16T05:49:50.867Z,341.63
2022-10-16T05:52:22.314Z,340.65
2022-10-16T05:54:53.504Z,336.30
2022-10-16T05:57:26.091Z,339.98
2022-10-16T05:59:57.559Z,337.75
2022-10-16T06:02:29.030Z,329.87
2022-10-16T06:05:02.794Z,325.98
2022-10-16T06:07:38.285Z,330.27
2022-10-16T06:10:11.413Z,340.45
2022-10-16T06:12:42.765Z,332.23
2022-10-16T06:15:14.254Z,338.77
2022-10-16T06:17:45.671Z,340.38
2022-10-16T06:20:19.500Z,346.63
2022-10-16T06:22:50.878Z,345.92
2022-10-16T06:25:22.249Z,348.20
2022-10-16T06:27:53.730Z,351.05
2022-10-16T06:30:24.905Z,358.08
2022-10-16T06:35:49.999Z,356.60
2022-10-16T06:38:21.466Z,346.83
2022-10-16T06:40:52.595Z,361.33
2022-10-16T06:43:24.026Z,353.33
2022-10-16T06:45:56.760Z,362.50
2022-10-16T06:48:29.634Z,364.23
2022-10-16T06:54:05.905Z,366.38
2022-10-16T06:56:37.629Z,368.80
2022-10-16T06:59:09.541Z,380.60
2022-10-16T07:01:41.036Z,380.67
2022-10-16T07:04:12.689Z,369.85
2022-10-16T07:06:46.449Z,373.40
2022-10-16T07:09:19.061Z,386.40
2022-10-16T07:11:53.118Z,395.88
2022-10-16T07:14:26.088Z,390.13
2022-10-16T07:16:57.682Z,393.67
2022-10-16T07:19:31.909Z,395.38
2022-10-16T07:22:07.743Z,401.67
2022-10-16T07:24:39.206Z,407.27
2022-10-16T07:27:10.343Z,408.33
2022-10-16T07:29:41.751Z,390.20
2022-10-16T07:32:12.948Z,415.17
2022-10-16T07:34:44.615Z,406.40
2022-10-16T07:37:18.381Z,422.58
2022-10-16T07:39:49.737Z,411.08
2022-10-16T07:42:21.271Z,420.60
2022-10-16T07:44:52.765Z,421.63
2022-10-16T07:47:24.289Z,424.35
2022-10-16T07:49:55.954Z,422.08
2022-10-16T07:52:29.913Z,420.88
2022-10-16T07:55:01.273Z,412.85
2022-10-16T07:57:32.833Z,424.63
2022-10-16T08:00:04.286Z,434.00
2022-10-16T08:02:43.444Z,431.60
2022-10-16T08:05:14.870Z,435.83
2022-10-16T08:07:52.688Z,433.92
2022-10-16T08:10:26.544Z,429.92
2022-10-16T08:12:58.083Z,433.90
2022-10-16T08:15:29.533Z,435.45
2022-10-16T08:18:01.793Z,417.00
2022-10-16T08:20:34.168Z,424.77
2022-10-16T08:23:09.872Z,432.45
2022-10-16T08:25:41.744Z,434.83
2022-10-16T08:28:15.064Z,449.23
2022-10-16T08:30:46.572Z,459.52
2022-10-16T08:33:18.146Z,466.42
2022-10-16T08:35:55.462Z,444.48
2022-10-16T08:38:29.389Z,444.08
2022-10-16T08:41:13.683Z,443.55
2022-10-16T08:44:16.616Z,469.33
2022-10-16T08:47:09.473Z,466.17
2022-10-16T08:52:53.091Z,453.10
2022-10-16T08:55:42.441Z,461.90
2022-10-16T08:58:17.598Z,459.80
2022-10-16T09:01:15.898Z,478.42
2022-10-16T09:04:08.461Z,482.08
2022-10-16T09:06:48.570Z,455.63
2022-10-16T09:09:39.511Z,473.58
2022-10-16T09:12:20.583Z,465.67
2022-10-16T09:15:02.639Z,472.67
2022-10-16T09:17:50.855Z,468.35
2022-10-16T09:20:32.018Z,465.50
2022-10-16T09:23:20.115Z,467.83
2022-10-16T09:25:53.678Z,469.85
2022-10-16T09:28:27.644Z,468.60
2022-10-16T09:30:59.192Z,466.52
2022-10-16T09:33:36.960Z,468.02
2022-10-16T09:36:09.951Z,468.13
2022-10-16T09:38:41.594Z,460.88
2022-10-16T09:41:21.063Z,476.13
2022-10-16T09:43:58.477Z,460.48
2022-10-16T09:46:31.888Z,469.95
2022-10-16T09:49:04.701Z,474.15
2022-10-16T09:51:38.227Z,460.20
2022-10-16T09:54:19.703Z,476.63
2022-10-16T09:56:53.139Z,474.10
2022-10-16T09:59:28.311Z,479.80
2022-10-16T10:02:02.018Z,485.80
2022-10-16T10:04:43.537Z,481.85
2022-10-16T10:07:22.631Z,482.23
2022-10-16T10:09:53.853Z,487.35
2022-10-16T10:12:27.647Z,499.58
2022-10-16T10:15:07.714Z,490.55
2022-10-16T10:17:50.902Z,484.55
2022-10-16T10:20:32.223Z,488.95
2022-10-16T10:23:04.712Z,483.88
2022-10-16T10:28:29.027Z,471.08
2022-10-16T10:31:08.716Z,472.98
2022-10-16T10:33:48.362Z,473.05
2022-10-16T10:36:31.755Z,483.17
2022-10-16T10:39:05.426Z,483.75
2022-10-16T10:42:05.083Z,498.52
2022-10-16T10:45:07.179Z,485.02
2022-10-16T10:47:51.162Z,482.23
2022-10-16T10:50:29.157Z,493.27
2022-10-16T10:53:13.381Z,496.02
2022-10-16T10:55:49.819Z,479.42
2022-10-16T10:58:48.660Z,488.40
2022-10-16T11:01:22.896Z,485.20
2022-10-16T11:04:38.536Z,493.52
2022-10-16T11:07:19.628Z,497.75
2022-10-16T11:09:55.845Z,500.38
2022-10-16T11:12:33.673Z,489.90
2022-10-16T11:15:15.471Z,499.63
2022-10-16T11:17:51.851Z,501.95
2022-10-16T11:20:26.682Z,496.65
2022-10-16T11:23:05.024Z,506.50
2022-10-16T11:25:37.213Z,506.30
2022-10-16T11:28:15.406Z,488.13
2022-10-16T11:30:51.346Z,505.50
2022-10-16T11:33:36.282Z,503.60
2022-10-16T11:36:15.683Z,494.65
2022-10-16T11:38:57.812Z,506.67
2022-10-16T11:41:33.879Z,501.85
2022-10-16T11:44:19.922Z,501.83
2022-10-16T11:47:28.806Z,496.33
2022-10-16T11:49:57.195Z,509.65
2022-10-16T11:52:35.731Z,505.67
2022-10-16T11:55:19.330Z,510.95
2022-10-16T11:57:54.023Z,521.65
2022-10-16T12:00:28.551Z,508.42
2022-10-16T12:03:09.526Z,512.10
2022-10-16T12:05:59.374Z,517.30
2022-10-16T12:08:31.394Z,509.27
2022-10-16T12:11:26.141Z,519.78
2022-10-16T12:14:09.434Z,509.27
2022-10-16T12:16:42.477Z,520.80
2022-10-16T12:19:17.725Z,526.83
2022-10-16T12:21:50.270Z,527.50
2022-10-16T12:24:35.282Z,523.00
2022-10-16T12:27:22.835Z,515.65
2022-10-16T12:30:00.209Z,516.03
2022-10-16T12:32:46.741Z,508.52
2022-10-16T12:35:24.911Z,527.10
2022-10-16T12:37:57.238Z,527.97
2022-10-16T12:40:32.427Z,522.75
2022-10-16T12:43:30.479Z,526.05
2022-10-16T12:46:24.459Z,529.60
2022-10-16T12:49:06.586Z,525.72
2022-10-16T12:51:40.932Z,529.33
2022-10-16T12:54:18.308Z,529.10
2022-10-16T12:57:00.930Z,520.65
2022-10-16T12:59:48.301Z,532.55
2022-10-16T13:02:52.694Z,536.38
2022-10-16T13:05:38.940Z,524.55
2022-10-16T13:08:30.423Z,514.35
2022-10-16T13:11:09.338Z,519.20
2022-10-16T13:14:07.533Z,506.77
2022-10-16T13:16:53.721Z,522.38
2022-10-16T13:19:33.212Z,519.25
2022-10-16T13:22:10.331Z,519.92
2022-10-16T13:24:53.604Z,517.03
2022-10-16T13:27:35.050Z,525.88
2022-10-16T13:30:16.541Z,515.83
2022-10-16T13:35:54.165Z,502.25
2022-10-16T13:38:28.215Z,498.67
2022-10-16T13:41:01.685Z,507.02
2022-10-16T13:43:37.942Z,510.48
2022-10-16T13:46:15.516Z,510.80
2022-10-16T13:49:00.819Z,508.73
2022-10-16T13:51:33.043Z,507.00
2022-10-16T13:54:04.565Z,500.98
2022-10-16T13:56:37.015Z,509.98
2022-10-16T13:59:27.820Z,497.75
2022-10-16T14:02:01.305Z,499.35
2022-10-16T14:04:36.995Z,514.58
2022-10-16T14:07:08.989Z,509.70
2022-10-16T14:09:41.046Z,515.85
2022-10-16T14:12:16.234Z,508.30
2022-10-16T14:14:50.244Z,499.38
2022-10-16T14:17:24.731Z,509.65
2022-10-16T14:20:02.568Z,518.15
2022-10-16T14:22:38.031Z,514.58
2022-10-16T14:25:27.553Z,512.78
2022-10-16T14:28:07.694Z,524.58
2022-10-16T14:30:40.112Z,507.90
2022-10-16T14:33:25.758Z,508.13
2022-10-16T14:36:08.876Z,506.83
2022-10-16T14:38:41.240Z,512.95
2022-10-16T14:41:13.586Z,517.33
2022-10-16T14:43:51.539Z,502.40
2022-10-16T14:46:27.186Z,512.65
2022-10-16T14:49:04.990Z,508.67
2022-10-16T14:51:39.717Z,512.35
2022-10-16T14:54:13.227Z,513.38
2022-10-16T14:56:51.808Z,508.13
2022-10-16T14:59:28.874Z,496.42
2022-10-16T15:02:00.460Z,518.70
2022-10-16T15:04:31.701Z,513.13
2022-10-16T15:07:05.775Z,526.08
2022-10-16T15:09:37.007Z,513.88
2022-10-16T15:12:09.644Z,520.40
2022-10-16T15:14:41.646Z,524.53
2022-10-16T15:17:15.475Z,516.28
2022-10-16T15:19:48.722Z,504.55
2022-10-16T15:22:24.473Z,499.88
2022-10-16T15:24:55.906Z,503.30
2022-10-16T15:27:28.051Z,503.38
2022-10-16T15:29:59.875Z,512.78
2022-10-16T15:32:31.391Z,501.42
2022-10-16T15:35:02.719Z,502.57
2022-10-16T15:37:37.128Z,506.35
2022-10-16T15:40:09.773Z,504.83
2022-10-16T15:42:41.244Z,516.42
2022-10-16T15:45:14.291Z,494.02
2022-10-16T15:47:46.625Z,508.98
2022-10-16T15:50:20.256Z,514.55
2022-10-16T15:52:55.300Z,514.47
2022-10-16T15:55:27.095Z,501.63
2022-10-16T16:00:29.289Z,495.13
2022-10-16T16:03:00.805Z,500.80
2022-10-16T16:05:32.287Z,516.93
2022-10-16T16:08:06.434Z,510.35
2022-10-16T16:10:37.679Z,514.22
2022-10-16T16:13:09.352Z,506.63
2022-10-16T16:15:44.415Z,495.93
2022-10-16T16:18:15.840Z,506.38
2022-10-16T16:20:47.128Z,502.02
2022-10-16T16:23:21.301Z,510.25
2022-10-16T16:26:08.662Z,493.92
2022-10-16T16:28:40.212Z,504.10
2022-10-16T16:31:12.058Z,490.17
2022-10-16T16:36:16.293Z,488.08
2022-10-16T16:38:51.004Z,489.58
2022-10-16T16:41:24.564Z,489.77
2022-10-16T16:43:56.474Z,492.23
2022-10-16T16:46:27.813Z,491.00
2022-10-16T16:49:01.644Z,487.13
2022-10-16T16:51:36.978Z,490.67
2022-10-16T16:54:15.891Z,483.65
2022-10-16T16:56:47.706Z,480.83
2022-10-16T16:59:23.131Z,484.90
2022-10-16T17:01:57.138Z,483.98
2022-10-16T17:04:29.153Z,488.13
2022-10-16T17:07:00.664Z,483.10
2022-10-16T17:09:36.360Z,479.85
2022-10-16T17:12:07.941Z,486.70
2022-10-16T17:17:10.789Z,461.27
2022-10-16T17:19:42.361Z,467.85
2022-10-16T17:22:13.555Z,478.73
2022-10-16T17:24:47.856Z,476.88
2022-10-16T17:27:20.219Z,463.98
2022-10-16T17:29:55.334Z,485.20
2022-10-16T17:32:27.005Z,468.02
2022-10-16T17:34:58.751Z,473.05
2022-10-16T17:37:30.408Z,458.08
2022-10-16T17:40:04.743Z,472.75
2022-10-16T17:42:35.984Z,471.23
2022-10-16T17:45:09.050Z,473.38
2022-10-16T17:47:42.061Z,461.33
2022-10-16T17:50:15.710Z,479.92
2022-10-16T17:52:47.285Z,461.60
2022-10-16T17:55:24.931Z,481.08
2022-10-16T17:57:58.609Z,460.67
2022-10-16T18:00:31.459Z,454.48
2022-10-16T18:03:02.896Z,461.10
2022-10-16T18:05:34.434Z,470.90
2022-10-16T18:08:05.776Z,460.63
2022-10-16T18:10:40.055Z,465.35
2022-10-16T18:13:12.031Z,471.75
2022-10-16T18:18:14.645Z,444.23
2022-10-16T18:20:46.230Z,449.92
2022-10-16T18:23:18.102Z,460.10
2022-10-16T18:25:56.239Z,451.83
2022-10-16T18:28:28.533Z,459.65
2022-10-16T18:31:01.725Z,468.33
2022-10-16T18:33:34.443Z,445.48
2022-10-16T18:36:07.454Z,458.35
2022-10-16T18:38:39.939Z,471.75
2022-10-16T18:41:14.425Z,469.80
2022-10-16T18:43:48.078Z,467.55
2022-10-16T18:46:21.097Z,468.00
2022-10-16T18:48:54.526Z,466.17
2022-10-16T18:51:29.538Z,458.30
2022-10-16T18:54:03.787Z,468.92
2022-10-16T18:56:39.065Z,460.55
2022-10-16T18:59:12.144Z,462.50
2022-10-16T19:01:44.760Z,460.98
2022-10-16T19:06:50.691Z,428.45
2022-10-16T19:09:24.082Z,453.10
2022-10-16T19:11:59.922Z,446.85
2022-10-16T19:14:33.090Z,457.65
2022-10-16T19:17:04.662Z,453.88
2022-10-16T19:19:38.526Z,457.02
2022-10-16T19:22:28.231Z,465.55
2022-10-16T19:25:00.990Z,450.48
2022-10-16T19:27:35.366Z,447.15
2022-10-16T19:30:07.700Z,452.20
2022-10-16T19:32:39.951Z,459.40
2022-10-16T19:35:12.792Z,444.58
2022-10-16T19:37:44.497Z,456.10
2022-10-16T19:40:15.806Z,434.93
2022-10-16T19:42:50.769Z,444.92
2022-10-16T19:45:22.303Z,445.55
2022-10-16T19:47:54.265Z,424.70
2022-10-16T19:50:25.835Z,424.75
2022-10-16T19:52:57.992Z,421.02
2022-10-16T19:55:29.697Z,424.25
2022-10-16T19:58:04.086Z,419.30
2022-10-16T20:00:35.677Z,436.67
2022-10-16T20:03:07.807Z,421.70
2022-10-16T20:05:39.610Z,421.17
2022-10-16T20:08:11.236Z,429.10
2022-10-16T20:10:42.550Z,419.75
2022-10-16T20:13:17.040Z,421.83
2022-10-16T20:15:48.990Z,425.33
2022-10-16T20:18:21.287Z,437.52
2022-10-16T20:20:53.534Z,428.50
2022-10-16T20:23:25.802Z,419.10
2022-10-16T20:25:59.161Z,416.42
2022-10-16T20:28:35.678Z,423.30
2022-10-16T20:31:12.178Z,439.00
2022-10-16T20:33:43.908Z,427.70
2022-10-16T20:36:16.262Z,421.77
2022-10-16T20:38:48.452Z,423.42
2022-10-16T20:41:21.234Z,432.15
2022-10-16T20:43:56.019Z,406.50
2022-10-16T20:46:29.124Z,416.17
2022-10-16T20:49:11.188Z,415.70
2022-10-16T20:51:53.242Z,415.48
2022-10-16T20:54:24.875Z,418.10
2022-10-16T20:56:56.088Z,402.45
2022-10-16T20:59:30.231Z,411.95
2022-10-16T21:02:01.495Z,396.88
2022-10-16T21:04:34.177Z,413.83
2022-10-16T21:09:36.350Z,379.90
2022-10-16T21:12:07.765Z,384.55
2022-10-16T21:14:51.085Z,401.08
2022-10-16T21:17:34.259Z,398.77
2022-10-16T21:20:05.941Z,404.13
2022-10-16T21:22:37.198Z,401.30
2022-10-16T21:25:09.785Z,396.08
2022-10-16T21:27:41.486Z,403.17
2022-10-16T21:30:16.033Z,393.17
2022-10-16T21:32:47.293Z,387.80
2022-10-16T21:35:18.902Z,393.75
2022-10-16T21:37:52.164Z,385.93
2022-10-16T21:40:23.640Z,398.08
2022-10-16T21:42:55.079Z,392.40
2022-10-16T21:45:29.114Z,398.98
2022-10-16T21:48:00.329Z,394.88
2022-10-16T21:50:31.713Z,387.27
2022-10-16T21:53:02.933Z,382.33
2022-10-16T21:55:38.425Z,383.52
2022-10-16T21:58:09.561Z,386.13
2022-10-16T22:00:43.624Z,376.37
2022-10-16T22:03:14.881Z,371.50
2022-10-16T22:05:46.539Z,366.83
2022-10-16T22:08:18.727Z,374.40
2022-10-16T22:10:50.151Z,374.75
2022-10-16T22:13:21.274Z,369.13
2022-10-16T22:15:56.215Z,382.43
2022-10-16T22:18:27.573Z,364.80
2022-10-16T22:20:59.091Z,391.85
2022-10-16T22:23:30.347Z,380.38
2022-10-16T22:26:02.949Z,374.13
2022-10-16T22:31:09.677Z,357.17
2022-10-16T22:33:41.311Z,368.13
2022-10-16T22:36:16.249Z,379.10
2022-10-16T22:38:47.475Z,371.80
2022-10-16T22:41:19.599Z,369.48
2022-10-16T22:43:51.852Z,366.77
2022-10-16T22:46:28.479Z,373.48
2022-10-16T22:49:00.043Z,373.05
2022-10-16T22:51:31.647Z,370.77
2022-10-16T22:54:02.851Z,373.52
2022-10-16T22:56:34.455Z,385.42
2022-10-16T22:59:05.854Z,367.15
2022-10-16T23:01:42.316Z,370.80
2022-10-16T23:04:13.497Z,375.75
2022-10-16T23:06:44.980Z,371.10
2022-10-16T23:09:16.143Z,370.98
2022-10-16T23:11:47.486Z,368.13
2022-10-16T23:14:23.297Z,369.48
2022-10-16T23:16:57.401Z,360.55
2022-10-16T23:19:28.655Z,362.75
2022-10-16T23:22:00.031Z,370.38
2022-10-16T23:24:33.026Z,366.33
2022-10-16T23:27:04.513Z,368.60
2022-10-16T23:29:36.000Z,361.90
2022-10-16T23:32:09.997Z,363.20
2022-10-16T23:34:41.202Z,362.60
2022-10-16T23:37:12.658Z,366.73
2022-10-16T23:39:43.830Z,368.92
2022-10-16T23:42:15.427Z,359.80
2022-10-16T23:44:46.644Z,369.42
2022-10-16T23:47:20.619Z,361.33
2022-10-16T23:49:51.832Z,362.25
2022-10-16T23:52:23.373Z,362.85
2022-10-16T23:54:54.650Z,354.42
2022-10-16T23:57:26.370Z,363.07
2022-10-16T23:59:57.767Z,356.50
